sensor_id;sensor_type;location;lat;lon;timestamp;pressure;altitude;pressure_sealevel;temperature;humidity
38038;BME280;23843;51.320;12.340;2023-03-14T05:30:46;97998.50;;;10.54;100.00
38038;BME280;23843;51.320;12.340;2023-03-14T05:33:12;98006.28;;;10.55;100.00
38038;BME280;23843;51.320;12.340;2023-03-14T05:35:38;97999.31;;;10.54;100.00
38038;BME280;23843;51.320;12.340;2023-03-14T05:38:03;97995.25;;;10.60;100.00
38038;BME280;23843;51.320;12.340;2023-03-14T05:40:29;97998.03;;;10.58;100.00
38038;BME280;23843;51.320;12.340;2023-03-14T05:42:56;97992.91;;;10.57;100.00
38038;BME280;23843;51.320;12.340;2023-03-14T05:45:22;98005.31;;;10.56;100.00
38038;BME280;23843;51.320;12.340;2023-03-14T05:47:49;98001.41;;;10.50;100.00
38038;BME280;23843;51.320;12.340;2023-03-14T05:50:15;98000.28;;;10.53;100.00
38038;BME280;23843;51.320;12.340;2023-03-14T05:52:40;97995.84;;;10.54;100.00
38038;BME280;23843;51.320;12.340;2023-03-14T05:55:06;97997.50;;;10.55;100.00
38038;BME280;23843;51.320;12.340;2023-03-14T05:57:32;98001.53;;;10.59;100.00
38038;BME280;23843;51.320;12.340;2023-03-14T05:59:58;98014.78;;;10.59;100.00
38038;BME280;23843;51.320;12.340;2023-03-14T06:02:23;98019.91;;;10.60;100.00
38038;BME280;23843;51.320;12.340;2023-03-14T06:04:50;98019.66;;;10.63;100.00
38038;BME280;23843;51.320;12.340;2023-03-14T06:07:15;98025.22;;;10.70;100.00
38038;BME280;23843;51.320;12.340;2023-03-14T06:09:41;98036.38;;;10.74;100.00
38038;BME280;23843;51.320;12.340;2023-03-14T06:12:07;98035.09;;;10.78;100.00
38038;BME280;23843;51.320;12.340;2023-03-14T06:14:33;98048.06;;;10.81;100.00
38038;BME280;23843;51.320;12.340;2023-03-14T06:16:59;98045.97;;;10.84;100.00
38038;BME280;23843;51.320;12.340;2023-03-14T06:19:25;98041.94;;;10.90;100.00
38038;BME280;23843;51.320;12.340;2023-03-14T06:21:53;98045.81;;;10.96;100.00
38038;BME280;23843;51.320;12.340;2023-03-14T06:24:18;98052.66;;;10.98;100.00
38038;BME280;23843;51.320;12.340;2023-03-14T06:26:46;98048.75;;;11.02;100.00
38038;BME280;23843;51.320;12.340;2023-03-14T06:29:11;98048.28;;;11.07;100.00
38038;BME280;23843;51.320;12.340;2023-03-14T06:31:37;98045.81;;;11.05;100.00
38038;BME280;23843;51.320;12.340;2023-03-14T06:34:02;98043.44;;;11.02;100.00
38038;BME280;23843;51.320;12.340;2023-03-14T06:36:28;98043.59;;;11.01;100.00
38038;BME280;23843;51.320;12.340;2023-03-14T06:38:55;98043.97;;;11.06;100.00
38038;BME280;23843;51.320;12.340;2023-03-14T06:41:20;98043.44;;;11.02;100.00
38038;BME280;23843;51.320;12.340;2023-03-14T06:43:45;98052.94;;;11.05;100.00
38038;BME280;23843;51.320;12.340;2023-03-14T06:46:11;98051.94;;;11.06;100.00
38038;BME280;23843;51.320;12.340;2023-03-14T06:48:36;98046.50;;;11.07;100.00
38038;BME280;23843;51.320;12.340;2023-03-14T06:51:02;98056.69;;;11.12;100.00
38038;BME280;23843;51.320;12.340;2023-03-14T06:53:28;98064.16;;;11.17;100.00
38038;BME280;23843;51.320;12.340;2023-03-14T06:55:55;98058.59;;;11.20;100.00
38038;BME280;23843;51.320;12.340;2023-03-14T06:58:21;98056.34;;;11.25;100.00
38038;BME280;23843;51.320;12.340;2023-03-14T07:00:47;98060.53;;;11.27;100.00
38038;BME280;23843;51.320;12.340;2023-03-14T07:03:13;98061.63;;;11.34;100.00
38038;BME280;23843;51.320;12.340;2023-03-14T07:05:39;98062.16;;;11.38;100.00
38038;BME280;23843;51.320;12.340;2023-03-14T07:08:04;98065.22;;;11.43;100.00
38038;BME280;23843;51.320;12.340;2023-03-14T07:10:31;98062.41;;;11.54;100.00
38038;BME280;23843;51.320;12.340;2023-03-14T07:12:57;98061.53;;;11.64;100.00
38038;BME280;23843;51.320;12.340;2023-03-14T07:15:24;98056.03;;;11.75;100.00
38038;BME280;23843;51.320;12.340;2023-03-14T07:17:49;98047.50;;;11.81;100.00
38038;BME280;23843;51.320;12.340;2023-03-14T07:20:17;98050.22;;;11.99;100.00
38038;BME280;23843;51.320;12.340;2023-03-14T07:22:43;98043.78;;;12.02;100.00
38038;BME280;23843;51.320;12.340;2023-03-14T07:25:09;98035.31;;;12.16;100.00
38038;BME280;23843;51.320;12.340;2023-03-14T07:27:35;98042.69;;;12.22;100.00
38038;BME280;23843;51.320;12.340;2023-03-14T07:30:04;98036.38;;;12.23;100.00
38038;BME280;23843;51.320;12.340;2023-03-14T07:32:30;98036.31;;;12.33;100.00
38038;BME280;23843;51.320;12.340;2023-03-14T07:34:56;98032.00;;;12.50;100.00
38038;BME280;23843;51.320;12.340;2023-03-14T07:37:22;98023.94;;;12.59;100.00
38038;BME280;23843;51.320;12.340;2023-03-14T07:39:49;98029.41;;;12.76;100.00
38038;BME280;23843;51.320;12.340;2023-03-14T07:42:16;98031.97;;;12.85;100.00
38038;BME280;23843;51.320;12.340;2023-03-14T07:44:43;98035.88;;;12.99;100.00
38038;BME280;23843;51.320;12.340;2023-03-14T07:47:10;98034.16;;;13.16;100.00
38038;BME280;23843;51.320;12.340;2023-03-14T07:49:36;98039.94;;;13.30;100.00
38038;BME280;23843;51.320;12.340;2023-03-14T07:52:01;98028.03;;;13.42;100.00
38038;BME280;23843;51.320;12.340;2023-03-14T07:54:27;98037.25;;;13.90;100.00
38038;BME280;23843;51.320;12.340;2023-03-14T07:56:53;98045.75;;;14.61;94.61
38038;BME280;23843;51.320;12.340;2023-03-14T07:59:18;98047.06;;;14.65;91.28
38038;BME280;23843;51.320;12.340;2023-03-14T08:01:44;98049.75;;;14.57;89.21
38038;BME280;23843;51.320;12.340;2023-03-14T08:04:11;98054.41;;;14.63;94.96
38038;BME280;23843;51.320;12.340;2023-03-14T08:06:36;98044.88;;;14.44;92.05
38038;BME280;23843;51.320;12.340;2023-03-14T08:09:04;98044.75;;;14.62;94.30
38038;BME280;23843;51.320;12.340;2023-03-14T08:11:33;98047.75;;;14.59;90.27
38038;BME280;23843;51.320;12.340;2023-03-14T08:14:00;98041.69;;;14.48;87.29
38038;BME280;23843;51.320;12.340;2023-03-14T08:16:27;98026.75;;;15.13;90.37
38038;BME280;23843;51.320;12.340;2023-03-14T08:18:52;98032.34;;;16.30;82.55
38038;BME280;23843;51.320;12.340;2023-03-14T08:21:19;98027.06;;;16.44;80.99
38038;BME280;23843;51.320;12.340;2023-03-14T08:23:44;98038.75;;;16.20;77.65
38038;BME280;23843;51.320;12.340;2023-03-14T08:26:10;98034.47;;;15.72;76.72
38038;BME280;23843;51.320;12.340;2023-03-14T08:28:36;98034.38;;;15.32;78.94
38038;BME280;23843;51.320;12.340;2023-03-14T08:31:06;98038.44;;;15.12;80.74
38038;BME280;23843;51.320;12.340;2023-03-14T08:33:31;98041.59;;;15.07;81.75
38038;BME280;23843;51.320;12.340;2023-03-14T08:35:59;98033.28;;;15.02;83.72
38038;BME280;23843;51.320;12.340;2023-03-14T08:38:27;98025.94;;;14.80;84.12
38038;BME280;23843;51.320;12.340;2023-03-14T08:40:57;98035.09;;;14.69;84.47
38038;BME280;23843;51.320;12.340;2023-03-14T08:43:22;98043.28;;;14.75;88.48
38038;BME280;23843;51.320;12.340;2023-03-14T08:45:48;98041.59;;;14.74;89.86
38038;BME280;23843;51.320;12.340;2023-03-14T08:48:13;98034.44;;;14.67;87.59
38038;BME280;23843;51.320;12.340;2023-03-14T08:50:39;98033.75;;;14.65;92.14
38038;BME280;23843;51.320;12.340;2023-03-14T08:53:04;98037.78;;;14.61;89.96
38038;BME280;23843;51.320;12.340;2023-03-14T08:55:31;98045.09;;;14.67;92.05
38038;BME280;23843;51.320;12.340;2023-03-14T08:58:01;98039.28;;;14.63;92.43
38038;BME280;23843;51.320;12.340;2023-03-14T09:00:27;98043.22;;;14.51;88.50
38038;BME280;23843;51.320;12.340;2023-03-14T09:02:53;98047.34;;;14.45;87.47
38038;BME280;23843;51.320;12.340;2023-03-14T09:05:20;98043.38;;;14.41;88.10
38038;BME280;23843;51.320;12.340;2023-03-14T09:07:45;98042.69;;;14.47;92.25
38038;BME280;23843;51.320;12.340;2023-03-14T09:10:11;98050.03;;;14.37;88.00
38038;BME280;23843;51.320;12.340;2023-03-14T09:12:38;98052.31;;;14.24;88.32
38038;BME280;23843;51.320;12.340;2023-03-14T09:15:05;98042.31;;;14.09;89.36
38038;BME280;23843;51.320;12.340;2023-03-14T09:17:31;98052.28;;;14.07;90.58
38038;BME280;23843;51.320;12.340;2023-03-14T09:19:57;98048.59;;;14.00;90.63
38038;BME280;23843;51.320;12.340;2023-03-14T09:22:24;98053.09;;;14.00;92.02
38038;BME280;23843;51.320;12.340;2023-03-14T09:24:50;98049.75;;;14.06;91.83
38038;BME280;23843;51.320;12.340;2023-03-14T09:27:15;98043.81;;;14.20;93.33
38038;BME280;23843;51.320;12.340;2023-03-14T09:29:42;98036.66;;;14.12;90.21
38038;BME280;23843;51.320;12.340;2023-03-14T09:32:08;98051.78;;;14.12;91.99
38038;BME280;23843;51.320;12.340;2023-03-14T09:34:34;98051.94;;;14.02;91.63
38038;BME280;23843;51.320;12.340;2023-03-14T09:37:00;98050.09;;;14.03;92.57
38038;BME280;23843;51.320;12.340;2023-03-14T09:39:27;98044.72;;;13.86;91.60
38038;BME280;23843;51.320;12.340;2023-03-14T09:41:54;98045.06;;;13.91;91.93
38038;BME280;23843;51.320;12.340;2023-03-14T09:44:24;98047.56;;;13.93;92.22
38038;BME280;23843;51.320;12.340;2023-03-14T09:46:53;98049.88;;;13.88;92.61
38038;BME280;23843;51.320;12.340;2023-03-14T09:49:21;98050.25;;;14.01;91.70
38038;BME280;23843;51.320;12.340;2023-03-14T09:51:50;98044.25;;;13.99;92.47
38038;BME280;23843;51.320;12.340;2023-03-14T09:54:27;98052.56;;;14.04;91.38
38038;BME280;23843;51.320;12.340;2023-03-14T09:56:58;98049.91;;;14.04;91.96
38038;BME280;23843;51.320;12.340;2023-03-14T09:59:25;98061.56;;;13.95;90.70
38038;BME280;23843;51.320;12.340;2023-03-14T10:01:55;98056.53;;;13.92;91.01
38038;BME280;23843;51.320;12.340;2023-03-14T10:04:22;98061.91;;;14.00;90.76
38038;BME280;23843;51.320;12.340;2023-03-14T10:06:48;98046.06;;;13.90;89.37
38038;BME280;23843;51.320;12.340;2023-03-14T10:09:19;98057.88;;;13.88;88.25
38038;BME280;23843;51.320;12.340;2023-03-14T10:11:45;98044.84;;;13.85;90.28
38038;BME280;23843;51.320;12.340;2023-03-14T10:14:12;98056.22;;;13.95;90.98
38038;BME280;23843;51.320;12.340;2023-03-14T10:16:41;98043.91;;;13.94;89.36
38038;BME280;23843;51.320;12.340;2023-03-14T10:19:11;98053.50;;;13.87;87.56
38038;BME280;23843;51.320;12.340;2023-03-14T10:21:38;98054.53;;;13.86;89.11
38038;BME280;23843;51.320;12.340;2023-03-14T10:24:09;98052.00;;;13.84;89.30
38038;BME280;23843;51.320;12.340;2023-03-14T10:26:35;98052.34;;;13.89;90.97
38038;BME280;23843;51.320;12.340;2023-03-14T10:29:04;98043.19;;;13.84;92.26
38038;BME280;23843;51.320;12.340;2023-03-14T10:31:46;98033.56;;;13.83;91.73
38038;BME280;23843;51.320;12.340;2023-03-14T10:34:17;98050.16;;;13.77;90.47
38038;BME280;23843;51.320;12.340;2023-03-14T10:36:43;98045.59;;;13.95;89.55
38038;BME280;23843;51.320;12.340;2023-03-14T10:39:24;98044.59;;;14.04;90.98
38038;BME280;23843;51.320;12.340;2023-03-14T10:41:52;98042.66;;;14.23;89.83
38038;BME280;23843;51.320;12.340;2023-03-14T10:44:20;98035.53;;;14.31;88.43
38038;BME280;23843;51.320;12.340;2023-03-14T10:46:55;98046.00;;;14.25;87.85
38038;BME280;23843;51.320;12.340;2023-03-14T10:49:28;98036.84;;;14.19;85.91
38038;BME280;23843;51.320;12.340;2023-03-14T10:51:54;98043.63;;;14.13;87.24
38038;BME280;23843;51.320;12.340;2023-03-14T10:54:21;98040.28;;;14.11;86.86
38038;BME280;23843;51.320;12.340;2023-03-14T10:56:56;98045.03;;;14.34;87.39
38038;BME280;23843;51.320;12.340;2023-03-14T10:59:22;98037.22;;;14.49;84.76
38038;BME280;23843;51.320;12.340;2023-03-14T11:01:52;98050.03;;;14.37;84.85
38038;BME280;23843;51.320;12.340;2023-03-14T11:04:32;98047.34;;;14.45;84.97
38038;BME280;23843;51.320;12.340;2023-03-14T11:07:08;98060.28;;;14.24;85.47
38038;BME280;23843;51.320;12.340;2023-03-14T11:09:42;98055.47;;;14.19;87.48
38038;BME280;23843;51.320;12.340;2023-03-14T11:12:25;98064.59;;;14.08;90.28
38038;BME280;23843;51.320;12.340;2023-03-14T11:14:56;98070.97;;;13.81;97.07
38038;BME280;23843;51.320;12.340;2023-03-14T11:17:28;98069.19;;;13.90;96.59
38038;BME280;23843;51.320;12.340;2023-03-14T11:20:16;98078.50;;;13.94;95.17
38038;BME280;23843;51.320;12.340;2023-03-14T11:22:50;98075.22;;;14.08;94.17
38038;BME280;23843;51.320;12.340;2023-03-14T11:25:27;98069.63;;;14.28;93.97
38038;BME280;23843;51.320;12.340;2023-03-14T11:28:00;98066.66;;;14.39;92.90
38038;BME280;23843;51.320;12.340;2023-03-14T11:30:34;98060.69;;;14.45;92.93
38038;BME280;23843;51.320;12.340;2023-03-14T11:33:04;98055.00;;;14.48;92.99
38038;BME280;23843;51.320;12.340;2023-03-14T11:35:38;98047.53;;;14.52;93.04
38038;BME280;23843;51.320;12.340;2023-03-14T11:38:16;98047.75;;;14.59;92.24
38038;BME280;23843;51.320;12.340;2023-03-14T11:40:44;98047.44;;;14.86;92.11
38038;BME280;23843;51.320;12.340;2023-03-14T11:43:17;98046.28;;;14.81;91.40
38038;BME280;23843;51.320;12.340;2023-03-14T11:45:46;98046.09;;;14.98;90.69
38038;BME280;23843;51.320;12.340;2023-03-14T11:48:18;98054.75;;;15.17;90.87
38038;BME280;23843;51.320;12.340;2023-03-14T11:50:50;98049.75;;;15.22;86.42
38038;BME280;23843;51.320;12.340;2023-03-14T11:53:19;98058.91;;;15.11;86.12
38038;BME280;23843;51.320;12.340;2023-03-14T11:55:47;98068.06;;;15.09;86.25
38038;BME280;23843;51.320;12.340;2023-03-14T11:58:17;98054.91;;;15.15;85.72
38038;BME280;23843;51.320;12.340;2023-03-14T12:00:44;98053.91;;;15.16;86.49
38038;BME280;23843;51.320;12.340;2023-03-14T12:03:18;98055.56;;;15.26;87.86
38038;BME280;23843;51.320;12.340;2023-03-14T12:05:57;98046.25;;;15.22;86.48
38038;BME280;23843;51.320;12.340;2023-03-14T12:08:42;98051.75;;;15.20;88.00
38038;BME280;23843;51.320;12.340;2023-03-14T12:11:12;98029.06;;;15.16;87.84
38038;BME280;23843;51.320;12.340;2023-03-14T12:13:40;98046.75;;;15.01;85.24
38038;BME280;23843;51.320;12.340;2023-03-14T12:19:36;98032.09;;;14.96;86.27
38038;BME280;23843;51.320;12.340;2023-03-14T12:22:21;98040.94;;;14.89;87.28
38038;BME280;23843;51.320;12.340;2023-03-14T12:24:51;98050.09;;;14.78;88.37
38038;BME280;23843;51.320;12.340;2023-03-14T12:27:40;98042.94;;;14.70;91.97
38038;BME280;23843;51.320;12.340;2023-03-14T12:30:17;98040.38;;;14.44;100.00
38038;BME280;23843;51.320;12.340;2023-03-14T12:33:19;98025.50;;;14.17;100.00
38038;BME280;23843;51.320;12.340;2023-03-14T12:35:46;98034.03;;;14.37;100.00
38038;BME280;23843;51.320;12.340;2023-03-14T12:38:17;98028.38;;;14.48;100.00
38038;BME280;23843;51.320;12.340;2023-03-14T12:40:56;98028.91;;;14.60;100.00
38038;BME280;23843;51.320;12.340;2023-03-14T12:43:26;98030.75;;;14.68;100.00
38038;BME280;23843;51.320;12.340;2023-03-14T12:46:21;98033.63;;;14.83;100.00
38038;BME280;23843;51.320;12.340;2023-03-14T12:48:49;98013.28;;;14.98;95.62
38038;BME280;23843;51.320;12.340;2023-03-14T12:51:16;98019.41;;;15.07;95.63
38038;BME280;23843;51.320;12.340;2023-03-14T12:54:09;98011.91;;;15.10;92.36
38038;BME280;23843;51.320;12.340;2023-03-14T12:56:59;98006.75;;;15.09;91.08
38038;BME280;23843;51.320;12.340;2023-03-14T12:59:34;98002.94;;;14.87;89.41
38038;BME280;23843;51.320;12.340;2023-03-14T13:02:17;98010.44;;;14.91;90.63
38038;BME280;23843;51.320;12.340;2023-03-14T13:04:47;97998.44;;;14.87;91.04
38038;BME280;23843;51.320;12.340;2023-03-14T13:07:31;97995.78;;;14.71;90.39
38038;BME280;23843;51.320;12.340;2023-03-14T13:10:17;97996.13;;;14.76;87.79
38038;BME280;23843;51.320;12.340;2023-03-14T13:12:48;97982.31;;;14.64;87.75
38038;BME280;23843;51.320;12.340;2023-03-14T13:15:21;97988.13;;;14.68;88.08
38038;BME280;23843;51.320;12.340;2023-03-14T13:17:50;97984.13;;;14.72;89.74
38038;BME280;23843;51.320;12.340;2023-03-14T13:20:24;97971.63;;;14.72;89.28
38038;BME280;23843;51.320;12.340;2023-03-14T13:22:52;97972.63;;;14.80;88.96
38038;BME280;23843;51.320;12.340;2023-03-14T13:25:19;97962.81;;;14.72;88.26
38038;BME280;23843;51.320;12.340;2023-03-14T13:27:44;97962.47;;;14.75;88.56
38038;BME280;23843;51.320;12.340;2023-03-14T13:30:20;97967.78;;;14.75;88.48
38038;BME280;23843;51.320;12.340;2023-03-14T13:32:48;97967.47;;;14.70;89.32
38038;BME280;23843;51.320;12.340;2023-03-14T13:35:17;97965.81;;;14.85;89.83
38038;BME280;23843;51.320;12.340;2023-03-14T13:37:42;97968.47;;;14.85;90.95
38038;BME280;23843;51.320;12.340;2023-03-14T13:40:20;97958.63;;;14.86;89.95
38038;BME280;23843;51.320;12.340;2023-03-14T13:42:45;97967.81;;;14.83;88.46
38038;BME280;23843;51.320;12.340;2023-03-14T13:45:12;97967.78;;;14.91;89.94
38038;BME280;23843;51.320;12.340;2023-03-14T13:47:39;97962.28;;;14.93;87.03
38038;BME280;23843;51.320;12.340;2023-03-14T13:50:11;97964.78;;;14.94;86.97
38038;BME280;23843;51.320;12.340;2023-03-14T13:52:38;97965.13;;;14.83;82.54
38038;BME280;23843;51.320;12.340;2023-03-14T13:55:06;97962.63;;;14.82;83.07
38038;BME280;23843;51.320;12.340;2023-03-14T13:57:48;97962.97;;;14.79;83.77
38038;BME280;23843;51.320;12.340;2023-03-14T14:00:18;97957.28;;;14.90;85.04
38038;BME280;23843;51.320;12.340;2023-03-14T14:02:45;97966.44;;;14.95;84.12
38038;BME280;23843;51.320;12.340;2023-03-14T14:05:12;97951.50;;;14.78;81.52
38038;BME280;23843;51.320;12.340;2023-03-14T14:07:39;97961.47;;;14.76;80.78
38038;BME280;23843;51.320;12.340;2023-03-14T14:10:09;97965.97;;;14.84;79.69
38038;BME280;23843;51.320;12.340;2023-03-14T14:12:38;97950.13;;;14.82;78.98
38038;BME280;23843;51.320;12.340;2023-03-14T14:15:10;97960.16;;;14.64;81.65
38038;BME280;23843;51.320;12.340;2023-03-14T14:17:39;97956.97;;;14.52;81.07
38038;BME280;23843;51.320;12.340;2023-03-14T14:20:10;97962.28;;;14.52;80.54
38038;BME280;23843;51.320;12.340;2023-03-14T14:22:39;97963.47;;;14.58;82.22
38038;BME280;23843;51.320;12.340;2023-03-14T14:25:06;97973.78;;;14.52;82.21
38038;BME280;23843;51.320;12.340;2023-03-14T14:27:35;97968.13;;;14.55;83.41
38038;BME280;23843;51.320;12.340;2023-03-14T14:30:05;97972.13;;;14.51;83.98
38038;BME280;23843;51.320;12.340;2023-03-14T14:32:36;97969.81;;;14.57;84.22
38038;BME280;23843;51.320;12.340;2023-03-14T14:35:03;97971.59;;;14.48;83.94
38038;BME280;23843;51.320;12.340;2023-03-14T14:37:31;97965.44;;;14.47;85.98
38038;BME280;23843;51.320;12.340;2023-03-14T14:39:59;97965.09;;;14.50;87.16
38038;BME280;23843;51.320;12.340;2023-03-14T14:42:27;97960.44;;;14.52;87.20
38038;BME280;23843;51.320;12.340;2023-03-14T14:44:56;97966.28;;;14.48;87.64
38038;BME280;23843;51.320;12.340;2023-03-14T14:47:24;97973.78;;;14.44;89.20
38038;BME280;23843;51.320;12.340;2023-03-14T14:49:54;97977.59;;;14.42;90.04
38038;BME280;23843;51.320;12.340;2023-03-14T14:52:21;97989.09;;;14.42;90.95
38038;BME280;23843;51.320;12.340;2023-03-14T14:54:52;97990.06;;;14.33;95.13
38038;BME280;23843;51.320;12.340;2023-03-14T14:57:20;98008.72;;;14.25;100.00
38038;BME280;23843;51.320;12.340;2023-03-14T14:59:48;98024.56;;;13.84;100.00
38038;BME280;23843;51.320;12.340;2023-03-14T15:02:31;98028.19;;;13.75;100.00
38038;BME280;23843;51.320;12.340;2023-03-14T15:04:59;98021.78;;;13.51;100.00
38038;BME280;23843;51.320;12.340;2023-03-14T15:07:24;98023.66;;;13.33;100.00
38038;BME280;23843;51.320;12.340;2023-03-14T15:09:50;98033.22;;;13.25;100.00
38038;BME280;23843;51.320;12.340;2023-03-14T15:12:16;98054.75;;;13.14;100.00
38038;BME280;23843;51.320;12.340;2023-03-14T15:14:43;98148.78;;;13.13;100.00
38038;BME280;23843;51.320;12.340;2023-03-14T15:17:10;98176.47;;;12.57;100.00
38038;BME280;23843;51.320;12.340;2023-03-14T15:19:36;98172.06;;;11.73;100.00
38038;BME280;23843;51.320;12.340;2023-03-14T15:22:03;98229.53;;;10.75;100.00
38038;BME280;23843;51.320;12.340;2023-03-14T15:24:30;98254.22;;;10.14;100.00
38038;BME280;23843;51.320;12.340;2023-03-14T15:26:56;98272.94;;;9.71;100.00
38038;BME280;23843;51.320;12.340;2023-03-14T15:29:21;98277.09;;;9.52;100.00
38038;BME280;23843;51.320;12.340;2023-03-14T15:31:47;98298.94;;;9.54;100.00
38038;BME280;23843;51.320;12.340;2023-03-14T15:34:13;98319.28;;;9.42;100.00
38038;BME280;23843;51.320;12.340;2023-03-14T15:36:39;98327.56;;;9.17;100.00
38038;BME280;23843;51.320;12.340;2023-03-14T15:39:06;98345.72;;;8.88;100.00
38038;BME280;23843;51.320;12.340;2023-03-14T15:41:32;98372.59;;;8.82;100.00
38038;BME280;23843;51.320;12.340;2023-03-14T15:43:58;98378.47;;;8.51;100.00
38038;BME280;23843;51.320;12.340;2023-03-14T15:46:23;98395.03;;;8.18;100.00
38038;BME280;23843;51.320;12.340;2023-03-14T15:48:50;98397.88;;;8.04;100.00
38038;BME280;23843;51.320;12.340;2023-03-14T15:51:17;98439.13;;;8.05;100.00
38038;BME280;23843;51.320;12.340;2023-03-14T15:53:42;98445.47;;;7.78;100.00
38038;BME280;23843;51.320;12.340;2023-03-14T15:56:12;98456.41;;;7.61;100.00
38038;BME280;23843;51.320;12.340;2023-03-14T15:58:39;98470.59;;;7.71;100.00
38038;BME280;23843;51.320;12.340;2023-03-14T16:01:04;98481.56;;;7.65;100.00
38038;BME280;23843;51.320;12.340;2023-03-14T16:03:31;98501.69;;;7.42;100.00
38038;BME280;23843;51.320;12.340;2023-03-14T16:05:57;98526.13;;;7.44;100.00
38038;BME280;23843;51.320;12.340;2023-03-14T16:08:23;98548.16;;;7.30;100.00
38038;BME280;23843;51.320;12.340;2023-03-14T16:10:49;98552.66;;;6.90;100.00
38038;BME280;23843;51.320;12.340;2023-03-14T16:13:16;98559.41;;;6.94;100.00
38038;BME280;23843;51.320;12.340;2023-03-14T16:15:42;98576.19;;;6.93;100.00
38038;BME280;23843;51.320;12.340;2023-03-14T16:18:07;98582.69;;;6.87;100.00
38038;BME280;23843;51.320;12.340;2023-03-14T16:20:34;98595.19;;;6.71;100.00
38038;BME280;23843;51.320;12.340;2023-03-14T16:23:00;98604.66;;;6.73;100.00
38038;BME280;23843;51.320;12.340;2023-03-14T16:25:26;98619.78;;;6.57;100.00
38038;BME280;23843;51.320;12.340;2023-03-14T16:27:52;98643.28;;;6.46;100.00
38038;BME280;23843;51.320;12.340;2023-03-14T16:30:20;98662.66;;;6.45;100.00
38038;BME280;23843;51.320;12.340;2023-03-14T16:32:47;98671.41;;;6.31;100.00
38038;BME280;23843;51.320;12.340;2023-03-14T16:35:13;98694.28;;;6.16;100.00
38038;BME280;23843;51.320;12.340;2023-03-14T16:37:39;98704.03;;;6.28;100.00
38038;BME280;23843;51.320;12.340;2023-03-14T16:40:07;98694.19;;;6.03;100.00
38038;BME280;23843;51.320;12.340;2023-03-14T16:42:34;98704.75;;;5.87;100.00
38038;BME280;23843;51.320;12.340;2023-03-14T16:45:00;98733.22;;;5.81;100.00
38038;BME280;23843;51.320;12.340;2023-03-14T16:47:27;98740.22;;;5.51;100.00
38038;BME280;23843;51.320;12.340;2023-03-14T16:49:53;98760.22;;;5.54;100.00
38038;BME280;23843;51.320;12.340;2023-03-14T16:52:19;98774.41;;;5.66;100.00
38038;BME280;23843;51.320;12.340;2023-03-14T16:54:45;98784.75;;;5.53;100.00
38038;BME280;23843;51.320;12.340;2023-03-14T16:57:15;98788.59;;;5.47;100.00
38038;BME280;23843;51.320;12.340;2023-03-14T16:59:41;98811.69;;;5.26;100.00
38038;BME280;23843;51.320;12.340;2023-03-14T17:02:08;98821.13;;;5.14;100.00
38038;BME280;23843;51.320;12.340;2023-03-14T17:04:39;98841.44;;;5.11;100.00
38038;BME280;23843;51.320;12.340;2023-03-14T17:07:04;98854.13;;;5.19;100.00
38038;BME280;23843;51.320;12.340;2023-03-14T17:09:31;98873.63;;;5.14;100.00
38038;BME280;23843;51.320;12.340;2023-03-14T17:11:58;98883.94;;;5.18;100.00
38038;BME280;23843;51.320;12.340;2023-03-14T17:14:24;98888.06;;;5.22;100.00
38038;BME280;23843;51.320;12.340;2023-03-14T17:16:51;98907.41;;;5.21;100.00
38038;BME280;23843;51.320;12.340;2023-03-14T17:19:17;98919.50;;;5.23;100.00
38038;BME280;23843;51.320;12.340;2023-03-14T17:21:45;98933.81;;;5.18;100.00
38038;BME280;23843;51.320;12.340;2023-03-14T17:24:11;98947.38;;;5.26;100.00
38038;BME280;23843;51.320;12.340;2023-03-14T17:26:40;98956.09;;;5.26;100.00
38038;BME280;23843;51.320;12.340;2023-03-14T17:29:07;98968.91;;;5.32;100.00
38038;BME280;23843;51.320;12.340;2023-03-14T17:31:32;98972.44;;;5.31;100.00
38038;BME280;23843;51.320;12.340;2023-03-14T17:33:58;98977.63;;;5.33;100.00
38038;BME280;23843;51.320;12.340;2023-03-14T17:36:23;98983.13;;;5.28;100.00
38038;BME280;23843;51.320;12.340;2023-03-14T17:38:51;98990.81;;;5.31;100.00
38038;BME280;23843;51.320;12.340;2023-03-14T17:41:19;98999.63;;;5.30;100.00
38038;BME280;23843;51.320;12.340;2023-03-14T17:43:46;99021.31;;;5.34;100.00
38038;BME280;23843;51.320;12.340;2023-03-14T17:46:13;99032.69;;;5.34;100.00
38038;BME280;23843;51.320;12.340;2023-03-14T17:48:39;99035.13;;;5.38;100.00
38038;BME280;23843;51.320;12.340;2023-03-14T17:51:06;99046.94;;;5.46;100.00
38038;BME280;23843;51.320;12.340;2023-03-14T17:53:33;99057.09;;;5.52;100.00
38038;BME280;23843;51.320;12.340;2023-03-14T17:56:00;99049.28;;;5.51;100.00
38038;BME280;23843;51.320;12.340;2023-03-14T17:58:27;99057.16;;;5.51;100.00
38038;BME280;23843;51.320;12.340;2023-03-14T18:00:53;99063.53;;;5.47;100.00
38038;BME280;23843;51.320;12.340;2023-03-14T18:03:20;99070.22;;;5.52;100.00
38038;BME280;23843;51.320;12.340;2023-03-14T18:05:46;99073.69;;;5.53;100.00
38038;BME280;23843;51.320;12.340;2023-03-14T18:08:13;99085.22;;;5.50;100.00
38038;BME280;23843;51.320;12.340;2023-03-14T18:10:39;99095.66;;;5.52;100.00
38038;BME280;23843;51.320;12.340;2023-03-14T18:13:07;99100.31;;;5.47;100.00
38038;BME280;23843;51.320;12.340;2023-03-14T18:15:33;99108.09;;;5.48;100.00
38038;BME280;23843;51.320;12.340;2023-03-14T18:17:59;99130.66;;;5.52;100.00
38038;BME280;23843;51.320;12.340;2023-03-14T18:20:25;99132.50;;;5.50;100.00
38038;BME280;23843;51.320;12.340;2023-03-14T18:22:51;99136.25;;;5.46;100.00
38038;BME280;23843;51.320;12.340;2023-03-14T18:25:17;99148.19;;;5.52;100.00
38038;BME280;23843;51.320;12.340;2023-03-14T18:27:45;99139.19;;;5.40;100.00